Time;durP1;ratioP1;P1;durP2;ratioP2;P2;SDS_P1;SDS_P2;PMS_P1;PMS_P2;Temp;Humidity;BMP_temperature;BMP_pressure;BME280_temperature;BME280_humidity;BME280_pressure;Samples;Min_cycle;Max_cycle;Signal;HPM_P1;HPM_P2
2023/01/22 00:01:39;;;;;;;49.27;39.20;;;;;;;-1.39;98.37;103224.28;5098257;28;20040;-60
2023/01/22 00:04:05;;;;;;;52.70;39.33;;;;;;;-1.43;97.43;103231.16;5111733;28;20043;-60
2023/01/22 00:06:30;;;;;;;48.43;38.40;;;;;;;-1.33;97.78;103232.28;5106297;28;20096;-60
2023/01/22 00:08:56;;;;;;;49.83;38.70;;;;;;;-1.45;97.27;103229.34;5094082;28;20020;-60
2023/01/22 00:11:22;;;;;;;51.87;39.73;;;;;;;-1.53;96.48;103223.97;5109425;28;20027;-60
2023/01/22 00:13:47;;;;;;;53.73;41.20;;;;;;;-1.50;97.32;103231.88;5097563;28;20055;-60
2023/01/22 00:16:15;;;;;;;51.67;40.07;;;;;;;-1.48;97.64;103224.94;5116051;28;20031;-60
2023/01/22 00:18:41;;;;;;;51.10;39.73;;;;;;;-1.54;97.08;103234.34;5108633;28;20039;-60
2023/01/22 00:21:12;;;;;;;53.30;41.27;;;;;;;-1.36;97.50;103229.59;5095588;28;20051;-60
2023/01/22 00:23:38;;;;;;;54.10;41.17;;;;;;;-1.34;98.04;103227.03;5094950;28;20027;-60
2023/01/22 00:26:06;;;;;;;50.73;40.43;;;;;;;-1.31;97.45;103237.53;5095579;28;20028;-60
2023/01/22 00:28:32;;;;;;;51.13;40.53;;;;;;;-1.34;97.70;103238.34;5088954;28;20031;-60
2023/01/22 00:30:59;;;;;;;53.77;42.73;;;;;;;-1.38;98.89;103231.31;5089166;28;20413;-60
2023/01/22 00:33:25;;;;;;;51.70;39.40;;;;;;;-1.41;99.01;103232.09;5097100;28;20019;-60
2023/01/22 00:35:50;;;;;;;49.80;40.37;;;;;;;-1.42;99.53;103230.31;5115536;28;20023;-60
2023/01/22 00:38:18;;;;;;;52.33;41.57;;;;;;;-1.45;98.98;103227.63;5115461;28;20047;-60
2023/01/22 00:40:44;;;;;;;53.07;42.20;;;;;;;-1.44;99.55;103212.84;5096790;28;20039;-60
2023/01/22 00:43:09;;;;;;;52.30;41.73;;;;;;;-1.43;99.98;103212.91;5115437;28;20606;-60
2023/01/22 00:45:37;;;;;;;53.37;41.37;;;;;;;-1.41;99.25;103212.97;5099549;28;20054;-60
2023/01/22 00:48:03;;;;;;;55.03;43.77;;;;;;;-1.45;99.93;103222.41;5113956;28;20024;-60
2023/01/22 00:50:28;;;;;;;54.33;42.90;;;;;;;-1.42;100.00;103219.00;5115435;28;20020;-60
2023/01/22 00:52:54;;;;;;;49.07;40.23;;;;;;;-1.45;99.74;103216.31;5115300;28;20453;-60
2023/01/22 00:55:19;;;;;;;50.90;41.03;;;;;;;-1.37;99.25;103217.38;5114742;28;20023;-60
2023/01/22 00:57:44;;;;;;;49.97;40.97;;;;;;;-1.46;99.14;103211.94;5115270;28;20027;-60
2023/01/22 01:00:13;;;;;;;47.33;39.73;;;;;;;-1.41;99.12;103212.97;5115046;28;20035;-60
2023/01/22 01:03:25;;;;;;;45.87;39.87;;;;;;;-1.49;98.70;103196.22;5098386;28;20089;-60
2023/01/22 01:05:25;;;;;;;50.40;39.03;;;;;;;-1.50;98.36;103203.16;5094380;28;20107;-60
2023/01/22 01:07:51;;;;;;;47.33;40.03;;;;;;;-1.51;99.44;103200.50;5094683;28;20107;-60
2023/01/22 01:10:16;;;;;;;47.90;39.60;;;;;;;-1.45;98.87;103200.66;5092761;28;20024;-60
2023/01/22 01:12:44;;;;;;;45.47;38.93;;;;;;;-1.49;98.96;103198.81;5094501;28;20442;-60
2023/01/22 01:15:10;;;;;;;44.97;38.23;;;;;;;-1.49;98.80;103191.88;5094311;28;20020;-60
2023/01/22 01:17:35;;;;;;;46.13;37.87;;;;;;;-1.53;99.13;103192.66;5094713;28;20119;-60
2023/01/22 01:20:01;;;;;;;45.90;38.17;;;;;;;-1.63;99.36;103185.44;5092172;28;20024;-60
2023/01/22 01:22:27;;;;;;;47.27;39.50;;;;;;;-1.61;99.32;103195.06;5095988;28;20047;-60
2023/01/22 01:24:52;;;;;;;47.13;38.33;;;;;;;-1.63;99.43;103188.91;5112719;28;20046;-60
2023/01/22 01:27:17;;;;;;;46.77;38.47;;;;;;;-1.58;99.87;103191.66;5107810;28;20044;-60
2023/01/22 01:29:43;;;;;;;48.47;39.57;;;;;;;-1.68;99.29;103193.13;5098848;28;20026;-60
2023/01/22 01:32:08;;;;;;;46.07;39.50;;;;;;;-1.67;99.40;103194.03;5110125;28;20012;-60
2023/01/22 01:34:34;;;;;;;47.27;39.03;;;;;;;-1.57;99.61;103190.78;5114095;28;20107;-60
2023/01/22 01:37:02;;;;;;;45.83;39.03;;;;;;;-1.63;99.12;103185.44;5108063;28;20061;-60
2023/01/22 01:39:27;;;;;;;46.67;39.90;;;;;;;-1.65;98.60;103184.50;5083888;28;20074;-60
2023/01/22 01:41:53;;;;;;;44.10;37.40;;;;;;;-1.69;98.39;103174.84;5114146;28;20120;-60
2023/01/22 01:44:21;;;;;;;44.60;37.97;;;;;;;-1.76;98.04;103175.53;5086591;28;20821;-60
2023/01/22 01:46:50;;;;;;;44.03;38.63;;;;;;;-1.73;98.31;103168.66;5075661;28;20494;-60
2023/01/22 01:49:26;;;;;;;43.63;36.43;;;;;;;-1.70;98.20;103155.69;5075426;28;20028;-60
2023/01/22 01:51:56;;;;;;;42.40;36.03;;;;;;;-1.89;98.41;103153.47;5077010;28;20027;-60
2023/01/22 01:54:22;;;;;;;;;;;;;;;-1.71;98.44;103153.03;5114048;28;20043;-60
2023/01/22 01:56:52;;;;;;;43.93;38.10;;;;;;;-1.93;98.64;103134.25;5102162;28;19955;-60
2023/01/22 01:59:19;;;;;;;42.58;36.78;;;;;;;-1.90;98.42;103156.91;5075471;28;20016;-60
2023/01/22 02:01:50;;;;;;;44.37;37.80;;;;;;;-1.94;98.46;103150.75;5074868;28;20160;-59
2023/01/22 02:04:16;;;;;;;43.57;36.93;;;;;;;-2.01;98.20;103151.41;5093459;28;20027;-59
2023/01/22 02:06:41;;;;;;;43.43;37.37;;;;;;;-1.92;98.12;103151.66;5093524;28;20024;-60
2023/01/22 02:09:07;;;;;;;43.07;37.13;;;;;;;-1.98;98.06;103143.66;5093490;28;20028;-60
2023/01/22 02:11:33;;;;;;;41.73;35.87;;;;;;;-1.96;98.08;103147.22;5093424;28;20121;-60
2023/01/22 02:14:04;;;;;;;44.40;37.30;;;;;;;-1.93;98.16;103156.84;5093368;28;20130;-59
2023/01/22 02:16:29;;;;;;;41.70;36.00;;;;;;;-2.00;97.95;103155.81;5091949;28;20035;-59
2023/01/22 02:18:55;;;;;;;45.10;37.10;;;;;;;-1.96;97.92;103147.22;5093417;28;20035;-60
2023/01/22 02:21:36;;;;;;;41.67;37.13;;;;;;;-1.96;97.87;103139.38;5092030;28;20032;-60
2023/01/22 02:24:03;;;;;;;40.27;35.90;;;;;;;-2.06;98.41;103122.63;5092804;28;20028;-60
2023/01/22 02:26:28;;;;;;;40.47;34.80;;;;;;;-1.95;98.35;103135.94;5091933;28;20103;-60
2023/01/22 02:28:54;;;;;;;40.27;35.80;;;;;;;-2.07;97.67;103126.06;5091666;28;20394;-59
2023/01/22 02:31:19;;;;;;;39.57;33.97;;;;;;;-1.99;98.06;103141.91;5092076;28;20032;-60
2023/01/22 02:33:45;;;;;;;38.40;34.20;;;;;;;-2.09;98.04;103135.59;5108379;28;20481;-60
2023/01/22 02:36:13;;;;;;;36.47;32.53;;;;;;;-2.15;97.05;103139.75;5113429;28;20035;-60
2023/01/22 02:38:38;;;;;;;39.23;32.73;;;;;;;-2.14;97.36;103144.13;5112844;28;20028;-59
2023/01/22 02:41:04;;;;;;;38.83;34.67;;;;;;;-2.20;97.17;103155.28;5113224;28;20023;-60
2023/01/22 02:43:29;;;;;;;38.00;33.90;;;;;;;-2.15;97.59;103150.16;5106122;28;20114;-60
2023/01/22 02:45:55;;;;;;;40.60;35.87;;;;;;;-2.09;98.25;103150.31;5092764;28;20048;-60
2023/01/22 02:48:20;;;;;;;39.17;34.90;;;;;;;-2.09;97.46;103143.41;5092830;28;20417;-59
2023/01/22 02:50:46;;;;;;;41.27;35.10;;;;;;;-2.16;97.68;103133.66;5092727;28;20387;-60
2023/01/22 02:53:11;;;;;;;37.60;33.43;;;;;;;-2.09;97.18;103126.88;5092576;28;20024;-60
2023/01/22 02:55:39;;;;;;;38.23;34.03;;;;;;;-2.12;96.99;103130.31;5091948;28;20030;-60
2023/01/22 02:58:05;;;;;;;39.57;33.43;;;;;;;-2.20;97.48;103108.34;5090914;28;20024;-59
2023/01/22 03:00:30;;;;;;;37.93;32.77;;;;;;;-1.96;97.98;103143.72;5092943;28;20031;-60
2023/01/22 03:02:58;;;;;;;37.40;33.17;;;;;;;-1.92;98.08;103129.91;5092361;28;20059;-60
2023/01/22 03:05:24;;;;;;;37.83;33.50;;;;;;;-1.88;97.87;103143.09;5091075;28;20024;-60
2023/01/22 03:07:54;;;;;;;36.00;32.20;;;;;;;-1.77;99.37;103139.84;5092123;28;20092;-60
2023/01/22 03:10:20;;;;;;;36.47;32.08;;;;;;;-1.76;99.02;103124.25;5099584;28;20028;-60
2023/01/22 03:21:19;;;;;;;33.73;30.23;;;;;;;-1.28;99.45;103141.91;5109546;28;20108;-60
2023/01/22 03:23:47;;;;;;;32.97;29.53;;;;;;;-1.27;99.54;103140.19;5104245;28;20024;-60
2023/01/22 03:26:15;;;;;;;34.30;30.67;;;;;;;-1.24;99.24;103127.19;5112514;28;20474;-60
2023/01/22 03:28:41;;;;;;;34.07;30.43;;;;;;;-1.30;99.83;103119.22;5092057;28;20058;-60
2023/01/22 03:31:06;;;;;;;34.20;30.23;;;;;;;-1.28;100.00;103126.25;5092064;28;20032;-60
2023/01/22 03:33:35;;;;;;;33.07;29.57;;;;;;;-1.21;99.80;103125.53;5097129;28;20023;-60
2023/01/22 03:36:08;;;;;;;32.80;29.37;;;;;;;-1.19;99.10;103123.84;5077296;28;20032;-60
2023/01/22 03:38:33;;;;;;;35.43;31.17;;;;;;;-1.21;98.74;103114.22;5093009;28;20435;-60
2023/01/22 03:41:15;;;;;;;34.33;30.77;;;;;;;-1.22;99.53;103115.06;5092141;28;20026;-60
2023/01/22 03:43:41;;;;;;;33.90;29.93;;;;;;;-1.23;99.30;103114.19;5091632;28;20032;-60
2023/01/22 03:46:11;;;;;;;33.17;29.57;;;;;;;-1.22;99.24;103107.25;5091983;28;20035;-60
2023/01/22 03:48:37;;;;;;;33.42;29.88;;;;;;;-1.25;99.15;103105.44;5091964;28;20046;-60
2023/01/22 03:51:22;;;;;;;34.17;30.30;;;;;;;-1.28;99.04;103101.88;5092447;28;20023;-60
2023/01/22 03:53:48;;;;;;;33.37;29.63;;;;;;;-1.31;99.41;103101.81;5091123;28;20028;-60
2023/01/22 03:56:16;;;;;;;36.57;31.53;;;;;;;-1.34;99.80;103101.75;5091404;28;20076;-60
2023/01/22 03:58:44;;;;;;;33.83;30.30;;;;;;;-1.31;99.19;103099.22;5090490;28;20051;-60
2023/01/22 04:01:30;;;;;;;33.20;29.70;;;;;;;-1.35;99.99;103107.78;5090205;28;20020;-60
2023/01/22 04:03:55;;;;;;;33.60;30.10;;;;;;;-1.42;99.02;103098.94;5091234;28;20032;-60
2023/01/22 04:06:22;;;;;;;34.47;30.77;;;;;;;-1.45;99.63;103104.97;5091705;28;20016;-60
2023/01/22 04:08:53;;;;;;;35.30;31.50;;;;;;;-1.52;98.57;103110.03;5091634;28;20032;-60
2023/01/22 04:11:20;;;;;;;33.50;29.90;;;;;;;-1.44;99.50;103114.59;5091583;28;20424;-60
2023/01/22 04:13:46;;;;;;;33.73;30.07;;;;;;;-1.61;98.94;103103.75;5090076;28;20024;-60
2023/01/22 04:16:13;;;;;;;34.53;30.93;;;;;;;-1.52;98.81;103110.03;5101704;28;20126;-60
2023/01/22 04:18:40;;;;;;;34.50;30.67;;;;;;;-1.52;98.72;103107.44;5093542;28;20027;-60
2023/01/22 04:21:06;;;;;;;33.97;30.37;;;;;;;-1.55;99.32;103104.75;5111875;28;20035;-59
2023/01/22 04:23:32;;;;;;;33.30;29.87;;;;;;;-1.50;99.60;103103.09;5111240;28;20031;-59
2023/01/22 04:25:57;;;;;;;35.40;31.60;;;;;;;-1.54;99.44;103101.28;5101369;28;20103;-60
2023/01/22 04:28:23;;;;;;;34.40;30.80;;;;;;;-1.48;98.99;103098.81;5091517;28;20471;-60
2023/01/22 04:30:50;;;;;;;35.53;31.67;;;;;;;-1.49;99.21;103105.75;5094084;28;20031;-60
2023/01/22 04:33:16;;;;;;;35.43;31.83;;;;;;;-1.46;99.34;103102.34;5085560;28;20020;-60
2023/01/22 04:35:41;;;;;;;34.73;31.03;;;;;;;-1.45;99.99;103102.38;5110753;28;20386;-60
2023/01/22 04:38:08;;;;;;;34.40;30.77;;;;;;;-1.47;99.92;103088.44;5110614;28;20475;-60
2023/01/22 04:40:34;;;;;;;36.37;32.67;;;;;;;-1.43;99.66;103102.41;5099056;28;20019;-60
2023/01/22 04:43:00;;;;;;;36.80;32.73;;;;;;;-1.46;99.48;103091.91;5100857;28;20105;-59
2023/01/22 04:45:26;;;;;;;34.83;31.13;;;;;;;-1.39;100.00;103099.00;5101739;28;20027;-60
2023/01/22 04:47:51;;;;;;;36.13;32.23;;;;;;;-1.34;100.00;103105.22;5111758;28;20027;-60
2023/01/22 04:50:20;;;;;;;35.27;31.07;;;;;;;-1.36;99.32;103101.69;5111386;28;20024;-60
2023/01/22 04:52:45;;;;;;;35.33;31.50;;;;;;;-1.32;99.75;103100.03;5111521;28;20023;-59
2023/01/22 04:55:12;;;;;;;34.23;30.67;;;;;;;-1.33;100.00;103093.06;5113676;28;20031;-59
2023/01/22 04:57:40;;;;;;;34.70;30.93;;;;;;;-1.29;99.46;103097.53;5086332;28;20474;-60
2023/01/22 05:00:06;;;;;;;32.77;29.27;;;;;;;-1.25;99.66;103094.13;5102656;28;20024;-60
2023/01/22 05:02:34;;;;;;;33.47;29.67;;;;;;;-1.37;100.00;103076.47;5088150;28;20498;-59
2023/01/22 05:05:03;;;;;;;34.50;30.77;;;;;;;-1.35;98.96;103097.34;5104503;28;20432;-60
2023/01/22 05:07:29;;;;;;;32.87;29.57;;;;;;;-1.31;99.16;103092.25;5114765;28;20542;-60
2023/01/22 05:09:54;;;;;;;34.10;28.63;;;;;;;-1.30;98.46;103103.56;5097197;28;20016;-59
2023/01/22 05:12:20;;;;;;;32.37;28.70;;;;;;;-1.28;98.96;103091.44;5096300;28;20046;-60
2023/01/22 05:14:45;;;;;;;31.77;28.47;;;;;;;-1.29;98.33;103097.53;5113103;28;20062;-60
2023/01/22 05:17:11;;;;;;;31.70;28.30;;;;;;;-1.28;98.52;103096.66;5114994;28;20027;-60
2023/01/22 05:19:36;;;;;;;34.47;28.97;;;;;;;-1.25;98.31;103097.59;5095330;28;20386;-60
2023/01/22 05:22:02;;;;;;;31.23;28.03;;;;;;;-1.18;98.25;103099.53;5114138;28;20030;-60
2023/01/22 05:24:28;;;;;;;32.13;28.43;;;;;;;-1.12;97.80;103105.69;5113610;28;20441;-60
2023/01/22 05:26:53;;;;;;;30.33;27.20;;;;;;;-1.18;98.15;103107.34;5114320;28;20104;-60
2023/01/22 05:29:24;;;;;;;30.43;27.33;;;;;;;-1.13;97.39;103114.38;5114083;28;20096;-60
2023/01/22 05:31:50;;;;;;;31.70;28.33;;;;;;;-1.16;97.98;103116.06;5114126;28;20109;-60
2023/01/22 05:34:15;;;;;;;30.67;26.87;;;;;;;-1.13;97.67;103117.00;5112492;28;20027;-60
2023/01/22 05:36:40;;;;;;;31.00;27.80;;;;;;;-1.13;97.99;103114.38;5114037;28;20508;-60
2023/01/22 05:39:06;;;;;;;31.40;27.87;;;;;;;-1.14;97.32;103121.34;5094568;28;20494;-60
2023/01/22 05:41:31;;;;;;;30.47;27.33;;;;;;;-1.19;97.69;103116.00;5110525;28;20027;-60
2023/01/22 05:43:57;;;;;;;30.07;26.87;;;;;;;-1.13;97.00;103111.78;5113583;28;20022;-60
2023/01/22 05:46:22;;;;;;;31.53;28.13;;;;;;;-1.13;97.50;103122.22;5113758;28;20475;-60
2023/01/22 05:48:50;;;;;;;31.03;27.57;;;;;;;-1.15;97.64;103120.47;5113923;28;20143;-60
2023/01/22 05:51:15;;;;;;;31.43;28.13;;;;;;;-1.17;97.01;103124.78;5083945;28;20024;-60
2023/01/22 05:53:44;;;;;;;31.40;28.10;;;;;;;-1.22;96.81;103115.06;5099121;28;20458;-60
2023/01/22 05:56:09;;;;;;;31.47;28.10;;;;;;;-1.14;97.57;103123.97;5113568;28;20023;-60
2023/01/22 05:58:37;;;;;;;29.63;26.47;;;;;;;-1.09;96.76;103127.53;5111378;28;20559;-60
2023/01/22 06:01:03;;;;;;;30.33;27.27;;;;;;;-1.16;97.30;103130.88;5110017;28;20016;-60
2023/01/22 06:03:29;;;;;;;30.57;27.43;;;;;;;-1.22;96.54;103113.34;5095015;28;20077;-60
2023/01/22 06:06:00;;;;;;;31.57;28.17;;;;;;;-1.17;97.32;103126.50;5113626;28;20028;-60
2023/01/22 06:08:25;;;;;;;;;;;;;;;-1.09;97.41;103134.50;5077754;28;20418;-60
2023/01/22 06:11:01;;;;;;;32.23;29.03;;;;;;;-1.15;96.93;103136.13;5112943;28;19916;-60
2023/01/22 06:13:30;;;;;;;33.13;29.17;;;;;;;-1.14;97.18;103129.19;5075400;28;20107;-60
2023/01/22 06:15:56;;;;;;;30.92;27.60;;;;;;;-1.08;97.21;103125.81;5098251;28;20024;-60
2023/01/22 06:18:27;;;;;;;30.37;27.27;;;;;;;-1.10;97.42;103122.28;5095527;28;20467;-60
2023/01/22 06:21:02;;;;;;;31.13;27.70;;;;;;;-1.12;97.29;103131.81;5087689;28;20020;-60
2023/01/22 06:23:31;;;;;;;30.83;27.60;;;;;;;-1.08;97.38;103125.81;5093231;28;20024;-60
2023/01/22 06:26:00;;;;;;;30.48;27.40;;;;;;;-1.14;97.43;103126.56;5112349;28;20469;-60
2023/01/22 06:28:26;;;;;;;31.67;28.33;;;;;;;-1.14;97.95;103137.00;5095803;28;20489;-60
2023/01/22 06:30:56;;;;;;;31.97;28.40;;;;;;;-1.13;97.68;103137.88;5113618;28;20035;-60
2023/01/22 06:33:24;;;;;;;31.45;28.08;;;;;;;-1.13;98.07;103130.94;5107832;28;20027;-60
2023/01/22 06:35:54;;;;;;;32.47;29.00;;;;;;;-1.08;97.88;103137.16;5112934;28;20717;-60
2023/01/22 06:38:20;;;;;;;31.63;28.43;;;;;;;-1.07;97.69;103135.41;5113350;28;20019;-60
2023/01/22 06:40:53;;;;;;;32.87;29.43;;;;;;;-1.03;97.74;103132.00;5093445;28;20382;-60
2023/01/22 06:43:19;;;;;;;32.70;28.10;;;;;;;-1.06;97.76;103127.63;5091458;28;20429;-60
2023/01/22 06:45:48;;;;;;;30.23;27.23;;;;;;;-1.07;97.64;103131.06;5091341;28;20099;-60
2023/01/22 06:48:13;;;;;;;31.80;28.27;;;;;;;-1.09;97.72;103126.66;5092658;28;20379;-60
2023/01/22 06:50:39;;;;;;;30.93;27.73;;;;;;;-1.06;97.59;103132.84;5093593;28;20032;-60
2023/01/22 06:53:04;;;;;;;32.03;28.67;;;;;;;-1.06;98.29;103131.94;5057757;28;20063;-60
2023/01/22 06:55:29;;;;;;;31.87;28.70;;;;;;;-1.05;97.55;103138.94;5073634;28;20507;-60
2023/01/22 06:57:55;;;;;;;32.27;28.77;;;;;;;-1.06;97.83;103139.78;5094463;28;20031;-60
2023/01/22 07:00:21;;;;;;;31.20;28.03;;;;;;;-1.05;98.65;103147.66;5112789;28;20098;-60
2023/01/22 07:02:47;;;;;;;32.53;29.23;;;;;;;-1.08;98.35;103142.38;5112571;28;20044;-59
2023/01/22 07:05:14;;;;;;;30.50;27.30;;;;;;;-1.07;98.21;103149.34;5094408;28;20034;-60
2023/01/22 07:07:40;;;;;;;31.50;28.07;;;;;;;-1.04;98.41;103144.19;5112936;28;20028;-60
2023/01/22 07:10:06;;;;;;;31.37;27.77;;;;;;;-1.03;97.83;103140.75;5100051;28;20570;-60
2023/01/22 07:12:31;;;;;;;30.63;27.43;;;;;;;-0.99;98.36;103141.69;5092434;28;20102;-60
2023/01/22 07:14:56;;;;;;;30.30;27.23;;;;;;;-1.03;97.96;103129.41;5097294;28;20363;-60
2023/01/22 07:17:22;;;;;;;29.70;26.60;;;;;;;-0.98;98.20;103146.06;5105080;28;20502;-60
2023/01/22 07:19:49;;;;;;;32.30;28.97;;;;;;;-0.99;98.21;103142.56;5106918;28;20031;-60
2023/01/22 07:22:15;;;;;;;31.17;27.97;;;;;;;-1.01;98.15;103149.47;5110865;28;20080;-60
2023/01/22 07:24:40;;;;;;;30.50;27.20;;;;;;;-0.97;98.16;103143.50;5091552;28;20095;-60
2023/01/22 07:27:06;;;;;;;31.97;28.67;;;;;;;-1.01;98.28;103127.72;5103852;28;20026;-60
2023/01/22 07:29:31;;;;;;;31.00;27.73;;;;;;;-0.92;98.31;103140.97;5100861;28;20020;-60
2023/01/22 07:31:56;;;;;;;30.80;27.20;;;;;;;-0.96;97.82;103140.03;5110627;28;20027;-60
2023/01/22 07:34:22;;;;;;;31.37;28.17;;;;;;;-1.04;98.15;103128.53;5104784;28;20019;-60
2023/01/22 07:36:47;;;;;;;30.93;27.73;;;;;;;-0.98;98.35;103138.22;5112393;28;20474;-60
2023/01/22 07:39:13;;;;;;;32.17;28.93;;;;;;;-0.95;98.42;103144.38;5099023;28;20521;-60
2023/01/22 07:41:38;;;;;;;31.60;28.20;;;;;;;-0.93;98.36;103141.81;5109571;28;20659;-60
2023/01/22 07:44:06;;;;;;;32.83;29.47;;;;;;;-0.93;98.06;103145.31;5111207;28;20094;-60
2023/01/22 07:46:37;;;;;;;33.57;29.97;;;;;;;-0.95;98.29;103149.59;5100776;28;20423;-60
2023/01/22 07:49:03;;;;;;;32.03;28.60;;;;;;;-0.91;97.82;103153.19;5091337;28;20474;-60
2023/01/22 07:51:29;;;;;;;34.13;29.03;;;;;;;-1.14;98.04;103123.97;5086580;28;20092;-60
2023/01/22 07:53:54;;;;;;;31.20;27.77;;;;;;;-0.93;98.08;103153.16;5075432;28;20074;-60
2023/01/22 07:56:20;;;;;;;31.97;28.63;;;;;;;-0.93;98.37;103155.75;5091729;28;20447;-60
2023/01/22 07:58:45;;;;;;;30.30;27.17;;;;;;;-0.94;97.97;103155.75;5097695;28;20043;-60
2023/01/22 08:01:11;;;;;;;31.17;27.87;;;;;;;-0.93;99.04;103155.75;5111904;28;20028;-60
2023/01/22 08:03:37;;;;;;;31.40;28.23;;;;;;;-0.94;98.19;103154.00;5111250;28;20047;-60
2023/01/22 08:06:14;;;;;;;29.23;26.23;;;;;;;-0.92;97.71;103161.84;5109111;28;20015;-60
2023/01/22 08:08:41;;;;;;;30.40;27.23;;;;;;;-0.88;98.57;103162.78;5091054;28;20020;-60
2023/01/22 08:11:07;;;;;;;29.50;26.37;;;;;;;-0.90;98.74;103160.16;5093624;28;20019;-60
2023/01/22 08:13:32;;;;;;;31.47;28.17;;;;;;;-0.87;98.76;103155.00;5111599;28;20020;-60
2023/01/22 08:15:57;;;;;;;30.57;27.37;;;;;;;-0.84;99.04;103160.31;5112015;28;20390;-60
2023/01/22 08:18:23;;;;;;;30.40;26.00;;;;;;;-0.76;98.17;103165.69;5111652;28;20411;-60
2023/01/22 08:20:48;;;;;;;31.27;28.07;;;;;;;-0.72;98.30;103170.13;5111584;28;20221;-60
2023/01/22 08:23:14;;;;;;;30.13;27.23;;;;;;;-0.70;98.64;103156.25;5089782;28;20150;-60
2023/01/22 08:25:39;;;;;;;29.90;26.77;;;;;;;-0.65;97.88;103168.53;5090798;28;20027;-60
2023/01/22 08:28:06;;;;;;;28.87;25.83;;;;;;;-0.57;97.47;103175.66;5089696;28;20016;-60
2023/01/22 08:30:33;;;;;;;27.13;24.43;;;;;;;-0.63;97.54;103167.72;5103893;28;20026;-60
2023/01/22 08:32:58;;;;;;;26.90;24.20;;;;;;;-0.58;97.69;103184.38;5115690;28;20024;-60
2023/01/22 08:35:24;;;;;;;27.73;24.83;;;;;;;-0.58;96.92;103180.88;5115377;28;20517;-60
2023/01/22 08:37:49;;;;;;;26.63;23.93;;;;;;;-0.58;97.34;103178.28;5115652;28;20062;-60
2023/01/22 08:40:16;;;;;;;26.60;23.83;;;;;;;-0.62;97.29;103174.69;5110614;28;20044;-60
2023/01/22 08:42:42;;;;;;;27.00;24.30;;;;;;;-0.53;97.35;103185.34;5093764;28;20019;-60
2023/01/22 08:45:08;;;;;;;27.17;24.47;;;;;;;-0.55;97.32;103187.03;5095012;28;20031;-60
2023/01/22 08:47:33;;;;;;;27.07;24.23;;;;;;;-0.54;97.32;103174.84;5106149;28;20035;-60
2023/01/22 08:50:01;;;;;;;26.80;23.90;;;;;;;-0.53;97.77;103181.84;5088078;28;20024;-60
2023/01/22 08:52:29;;;;;;;26.00;23.40;;;;;;;-0.48;98.02;103190.66;5089729;28;20116;-60
2023/01/22 08:54:57;;;;;;;25.80;23.20;;;;;;;-0.52;96.68;103188.84;5094697;28;20020;-61
2023/01/22 08:57:22;;;;;;;26.40;23.60;;;;;;;-0.50;97.43;103181.91;5082501;28;20023;-60
2023/01/22 08:59:48;;;;;;;26.13;22.83;;;;;;;-0.48;96.91;103188.94;5114974;28;20016;-60
2023/01/22 09:02:13;;;;;;;24.93;22.30;;;;;;;-0.49;96.99;103189.78;5114593;28;20043;-60
2023/01/22 09:04:41;;;;;;;23.97;21.70;;;;;;;-0.62;96.93;103169.47;5114802;28;20094;-60
2023/01/22 09:07:07;;;;;;;26.10;21.77;;;;;;;-0.54;97.44;103188.81;5107454;28;20035;-60
2023/01/22 09:09:33;;;;;;;24.43;21.93;;;;;;;-0.47;97.68;103180.25;5111546;28;20033;-60
2023/01/22 09:11:58;;;;;;;24.70;22.20;;;;;;;-0.43;97.35;103183.81;5096678;28;20103;-60
2023/01/22 09:14:24;;;;;;;24.43;20.93;;;;;;;-0.46;96.94;103174.16;5096406;28;20407;-60
2023/01/22 09:16:49;;;;;;;23.70;21.23;;;;;;;-0.38;96.81;103182.16;5096649;28;20032;-60
2023/01/22 09:19:14;;;;;;;24.77;22.17;;;;;;;-0.43;96.72;103175.97;5099330;28;20086;-60
2023/01/22 09:21:40;;;;;;;23.20;21.00;;;;;;;-0.38;97.01;103190.00;5094776;28;20032;-60
2023/01/22 09:24:06;;;;;;;23.23;20.93;;;;;;;-0.37;96.38;103189.16;5075893;28;20062;-60
2023/01/22 09:26:32;;;;;;;23.93;21.43;;;;;;;-0.36;96.69;103187.41;5076151;28;20020;-60
2023/01/22 09:28:59;;;;;;;23.70;21.30;;;;;;;-0.37;96.99;103194.38;5076110;28;20024;-60
2023/01/22 09:31:25;;;;;;;23.00;20.67;;;;;;;-0.39;97.42;103183.00;5078438;28;20055;-60
2023/01/22 09:33:53;;;;;;;23.47;20.97;;;;;;;-0.29;96.78;103192.81;5102681;28;20024;-60
2023/01/22 09:36:19;;;;;;;23.63;21.33;;;;;;;-0.29;96.76;103194.56;5095741;28;20027;-60
2023/01/22 09:38:44;;;;;;;23.10;20.43;;;;;;;-0.20;96.29;103192.09;5113506;28;20238;-60
2023/01/22 09:41:18;;;;;;;22.83;20.57;;;;;;;-0.08;96.32;103200.19;5113732;28;20019;-60
2023/01/22 09:43:49;;;;;;;27.57;21.70;;;;;;;-0.12;95.88;103200.09;5102440;28;20058;-60
2023/01/22 09:46:21;;;;;;;23.60;21.20;;;;;;;-0.06;95.99;103202.81;5112179;28;20414;-61
2023/01/22 09:48:52;;;;;;;23.10;19.93;;;;;;;-0.08;95.89;103204.53;5109063;28;20027;-60
2023/01/22 09:51:18;;;;;;;23.53;21.13;;;;;;;-0.07;95.42;103201.06;5075644;28;20023;-60
2023/01/22 09:53:53;;;;;;;22.77;20.57;;;;;;;-0.09;95.88;103205.38;5084012;28;20547;-60
2023/01/22 09:56:22;;;;;;;23.27;20.80;;;;;;;-0.09;96.56;103201.03;5114287;28;20263;-60
2023/01/22 09:58:50;;;;;;;23.70;21.23;;;;;;;-0.14;95.94;103200.06;5113564;28;20028;-60
2023/01/22 10:01:20;;;;;;;21.40;19.27;;;;;;;-0.16;95.67;103193.03;5079843;28;20020;-60
2023/01/22 10:03:51;;;;;;;22.67;20.42;;;;;;;-0.18;96.07;103200.84;5109315;28;20039;-60
2023/01/22 10:06:21;;;;;;;22.17;20.07;;;;;;;-0.22;95.83;103188.56;5112497;28;20023;-60
2023/01/22 10:09:14;;;;;;;24.03;21.33;;;;;;;-0.16;96.40;103206.13;5113092;28;20027;-60
2023/01/22 10:11:44;;;;;;;23.83;21.47;;;;;;;-0.14;95.99;103207.91;5094606;28;20040;-61
2023/01/22 10:14:15;;;;;;;22.90;20.60;;;;;;;-0.14;95.88;103212.28;5113388;28;20023;-60
2023/01/22 10:16:44;;;;;;;24.93;22.43;;;;;;;-0.12;95.70;103211.44;5111543;28;20035;-60
2023/01/22 10:19:21;;;;;;;25.20;22.57;;;;;;;-0.10;95.98;103217.56;5111130;28;20051;-60
2023/01/22 10:21:53;;;;;;;25.20;21.73;;;;;;;-0.14;95.69;103217.50;5111794;28;20459;-60
2023/01/22 10:24:18;;;;;;;23.73;21.27;;;;;;;-0.13;95.88;103217.50;5109228;28;20038;-60
2023/01/22 10:26:54;;;;;;;24.60;22.20;;;;;;;-0.12;96.24;103223.63;5095275;28;20023;-60
2023/01/22 10:29:32;;;;;;;23.47;21.23;;;;;;;-0.13;95.69;103214.03;5093010;28;20035;-60
2023/01/22 10:32:14;;;;;;;23.13;20.83;;;;;;;-0.12;95.81;103210.53;5109366;28;20062;-60
2023/01/22 10:34:39;;;;;;;22.50;20.20;;;;;;;-0.09;96.00;103202.75;5104634;28;20039;-60
2023/01/22 10:37:16;;;;;;;25.37;22.77;;;;;;;-0.11;96.68;103199.25;5113299;28;20028;-60
2023/01/22 10:39:45;;;;;;;22.37;20.17;;;;;;;-0.10;96.55;103198.38;5110208;28;20152;-60
2023/01/22 10:42:18;;;;;;;23.90;21.53;;;;;;;-0.08;96.95;103199.31;5080561;28;20118;-60
2023/01/22 10:44:44;;;;;;;23.73;21.43;;;;;;;-0.07;96.67;103198.44;5086620;28;20116;-60
2023/01/22 10:47:19;;;;;;;22.13;19.93;;;;;;;-0.04;96.64;103202.00;5092792;28;20107;-60
2023/01/22 10:49:48;;;;;;;22.57;20.37;;;;;;;-0.06;96.51;103200.19;5102969;28;20028;-60
2023/01/22 10:52:38;;;;;;;21.13;18.93;;;;;;;-0.04;95.72;103214.19;5077447;28;20032;-60
2023/01/22 10:55:06;;;;;;;23.13;20.67;;;;;;;-0.05;96.54;103217.69;5068049;28;20104;-60
2023/01/22 10:57:34;;;;;;;23.23;20.83;;;;;;;-0.08;96.71;103210.66;5090696;28;20036;-60
2023/01/22 11:00:06;;;;;;;23.03;20.47;;;;;;;-0.03;96.46;103215.94;5091099;28;20072;-60
2023/01/22 11:02:34;;;;;;;22.33;20.10;;;;;;;-0.05;96.13;103220.28;5092287;28;20139;-60
2023/01/22 11:05:33;;;;;;;22.80;20.63;;;;;;;0.05;96.50;103216.97;5092243;28;20023;-60
2023/01/22 11:08:03;;;;;;;22.73;20.43;;;;;;;-0.04;95.60;103208.97;5066372;28;20035;-60
2023/01/22 11:10:31;;;;;;;23.37;21.07;;;;;;;-0.08;96.31;103197.56;5094159;28;20084;-60
2023/01/22 11:13:06;;;;;;;21.83;19.53;;;;;;;-0.03;96.41;103195.03;5092321;28;20028;-60
2023/01/22 11:15:42;;;;;;;22.37;20.07;;;;;;;0.04;96.24;103193.44;5090746;28;20024;-60
2023/01/22 11:18:17;;;;;;;22.37;20.10;;;;;;;0.05;96.60;103189.94;5092278;28;20127;-60
2023/01/22 11:20:54;;;;;;;21.60;19.63;;;;;;;0.05;96.09;103187.31;5092195;28;20403;-60